sensor_id;sensor_type;location;lat;lon;timestamp;pressure;altitude;pressure_sealevel;temperature;humidity
76311;BME280;65120;59.304;18.294;2023-08-24T00:01:24;101204.63;;;17.17;71.40
76311;BME280;65120;59.304;18.294;2023-08-24T00:03:51;101184.72;;;17.08;71.41
76311;BME280;65120;59.304;18.294;2023-08-24T00:06:18;101196.75;;;17.15;71.67
76311;BME280;65120;59.304;18.294;2023-08-24T00:08:45;101184.59;;;17.11;71.50
76311;BME280;65120;59.304;18.294;2023-08-24T00:11:13;101195.88;;;17.15;71.40
76311;BME280;65120;59.304;18.294;2023-08-24T00:13:43;101188.34;;;17.05;71.36
76311;BME280;65120;59.304;18.294;2023-08-24T00:16:14;101188.13;;;17.10;71.43
76311;BME280;65120;59.304;18.294;2023-08-24T00:18:41;101181.41;;;17.03;71.46
76311;BME280;65120;59.304;18.294;2023-08-24T00:21:08;101195.41;;;17.05;71.78
76311;BME280;65120;59.304;18.294;2023-08-24T00:23:35;101185.75;;;17.04;71.80
76311;BME280;65120;59.304;18.294;2023-08-24T00:26:02;101201.34;;;17.10;71.71
76311;BME280;65120;59.304;18.294;2023-08-24T00:28:28;101196.19;;;17.07;71.72
76311;BME280;65120;59.304;18.294;2023-08-24T00:30:57;101205.84;;;17.08;72.06
76311;BME280;65120;59.304;18.294;2023-08-24T00:33:24;101210.22;;;17.07;71.72
76311;BME280;65120;59.304;18.294;2023-08-24T00:35:51;101207.66;;;17.06;71.83
76311;BME280;65120;59.304;18.294;2023-08-24T00:38:18;101209.38;;;17.07;71.81
76311;BME280;65120;59.304;18.294;2023-08-24T00:40:45;101205.97;;;17.05;72.08
76311;BME280;65120;59.304;18.294;2023-08-24T00:43:11;101211.25;;;17.05;72.05
76311;BME280;65120;59.304;18.294;2023-08-24T00:45:39;101204.22;;;17.04;72.03
76311;BME280;65120;59.304;18.294;2023-08-24T00:48:07;101187.81;;;16.96;71.96
76311;BME280;65120;59.304;18.294;2023-08-24T00:50:34;101199.91;;;17.01;72.00
76311;BME280;65120;59.304;18.294;2023-08-24T00:53:01;101190.56;;;16.93;71.97
76311;BME280;65120;59.304;18.294;2023-08-24T00:55:28;101203.53;;;16.99;72.28
76311;BME280;65120;59.304;18.294;2023-08-24T00:57:56;101201.78;;;16.99;72.42
76311;BME280;65120;59.304;18.294;2023-08-24T01:00:24;101204.53;;;16.96;72.27
76311;BME280;65120;59.304;18.294;2023-08-24T01:02:50;101204.47;;;16.98;72.27
76311;BME280;65120;59.304;18.294;2023-08-24T01:05:19;101197.50;;;16.95;72.35
76311;BME280;65120;59.304;18.294;2023-08-24T01:07:46;101199.19;;;16.98;72.57
76311;BME280;65120;59.304;18.294;2023-08-24T01:10:13;101201.00;;;16.96;72.71
76311;BME280;65120;59.304;18.294;2023-08-24T01:12:52;101209.81;;;16.96;72.48
76311;BME280;65120;59.304;18.294;2023-08-24T01:15:28;101206.28;;;16.96;72.70
76311;BME280;65120;59.304;18.294;2023-08-24T01:18:00;101197.59;;;16.94;72.53
76311;BME280;65120;59.304;18.294;2023-08-24T01:20:31;101201.09;;;16.94;72.62
76311;BME280;65120;59.304;18.294;2023-08-24T01:23:07;101198.44;;;16.94;72.69
76311;BME280;65120;59.304;18.294;2023-08-24T01:25:38;101200.34;;;16.91;72.65
76311;BME280;65120;59.304;18.294;2023-08-24T01:28:09;101212.53;;;16.93;72.76
76311;BME280;65120;59.304;18.294;2023-08-24T01:30:37;101197.72;;;16.91;73.00
76311;BME280;65120;59.304;18.294;2023-08-24T01:33:04;101175.41;;;16.74;72.70
76311;BME280;65120;59.304;18.294;2023-08-24T01:35:31;101201.25;;;16.90;72.73
76311;BME280;65120;59.304;18.294;2023-08-24T01:37:59;101209.97;;;16.92;73.10
76311;BME280;65120;59.304;18.294;2023-08-24T01:40:36;101205.63;;;16.91;72.99
76311;BME280;65120;59.304;18.294;2023-08-24T01:43:09;101203.00;;;16.91;73.25
76311;BME280;65120;59.304;18.294;2023-08-24T01:45:37;101201.31;;;16.88;73.15
76311;BME280;65120;59.304;18.294;2023-08-24T01:48:07;101201.25;;;16.90;73.06
76311;BME280;65120;59.304;18.294;2023-08-24T01:50:36;101202.19;;;16.89;73.23
76311;BME280;65120;59.304;18.294;2023-08-24T01:53:04;101209.16;;;16.90;73.35
76311;BME280;65120;59.304;18.294;2023-08-24T01:55:31;101197.75;;;16.89;73.03
76311;BME280;65120;59.304;18.294;2023-08-24T01:57:58;101194.50;;;16.82;73.15
76311;BME280;65120;59.304;18.294;2023-08-24T02:00:27;101180.53;;;16.79;73.54
76311;BME280;65120;59.304;18.294;2023-08-24T02:02:54;101183.25;;;16.77;73.57
76311;BME280;65120;59.304;18.294;2023-08-24T02:05:20;101189.16;;;16.84;73.49
76311;BME280;65120;59.304;18.294;2023-08-24T02:07:49;101198.72;;;16.86;73.45
76311;BME280;65120;59.304;18.294;2023-08-24T02:10:16;101196.94;;;16.87;73.38
76311;BME280;65120;59.304;18.294;2023-08-24T02:12:43;101171.84;;;16.75;73.50
76311;BME280;65120;59.304;18.294;2023-08-24T02:15:10;101190.81;;;16.86;73.58
76311;BME280;65120;59.304;18.294;2023-08-24T02:17:38;101183.81;;;16.85;73.49
76311;BME280;65120;59.304;18.294;2023-08-24T02:20:06;101186.47;;;16.85;73.34
76311;BME280;65120;59.304;18.294;2023-08-24T02:22:34;101187.47;;;16.81;73.47
76311;BME280;65120;59.304;18.294;2023-08-24T02:25:01;101194.38;;;16.85;73.39
76311;BME280;65120;59.304;18.294;2023-08-24T02:27:30;101191.78;;;16.84;73.70
76311;BME280;65120;59.304;18.294;2023-08-24T02:29:57;101200.56;;;16.84;73.94
76311;BME280;65120;59.304;18.294;2023-08-24T02:32:24;101203.19;;;16.84;73.84
76311;BME280;65120;59.304;18.294;2023-08-24T02:34:52;101190.94;;;16.83;74.00
76311;BME280;65120;59.304;18.294;2023-08-24T02:37:19;101194.50;;;16.82;73.95
76311;BME280;65120;59.304;18.294;2023-08-24T02:39:46;101190.06;;;16.83;73.84
76311;BME280;65120;59.304;18.294;2023-08-24T02:42:13;101184.84;;;16.81;74.06
76311;BME280;65120;59.304;18.294;2023-08-24T02:44:40;101183.94;;;16.82;74.02
76311;BME280;65120;59.304;18.294;2023-08-24T02:47:07;101182.28;;;16.80;73.97
76311;BME280;65120;59.304;18.294;2023-08-24T02:49:34;101192.75;;;16.81;74.21
76311;BME280;65120;59.304;18.294;2023-08-24T02:52:02;101182.19;;;16.81;74.21
76311;BME280;65120;59.304;18.294;2023-08-24T02:54:29;101177.78;;;16.82;74.03
76311;BME280;65120;59.304;18.294;2023-08-24T02:56:56;101179.63;;;16.80;74.18
76311;BME280;65120;59.304;18.294;2023-08-24T02:59:23;101187.47;;;16.81;74.29
76311;BME280;65120;59.304;18.294;2023-08-24T03:01:50;101176.16;;;16.79;74.18
76311;BME280;65120;59.304;18.294;2023-08-24T03:04:16;101181.34;;;16.81;74.23
76311;BME280;65120;59.304;18.294;2023-08-24T03:06:43;101178.78;;;16.79;74.05
76311;BME280;65120;59.304;18.294;2023-08-24T03:09:12;101185.78;;;16.80;74.38
76311;BME280;65120;59.304;18.294;2023-08-24T03:11:39;101183.13;;;16.80;74.32
76311;BME280;65120;59.304;18.294;2023-08-24T03:14:06;101180.50;;;16.80;74.55
76311;BME280;65120;59.304;18.294;2023-08-24T03:16:33;101177.03;;;16.78;74.66
76311;BME280;65120;59.304;18.294;2023-08-24T03:19:00;101170.16;;;16.74;74.58
76311;BME280;65120;59.304;18.294;2023-08-24T03:21:27;101171.00;;;16.75;74.61
76311;BME280;65120;59.304;18.294;2023-08-24T03:23:54;101178.78;;;16.79;74.42
76311;BME280;65120;59.304;18.294;2023-08-24T03:26:22;101178.91;;;16.76;74.75
76311;BME280;65120;59.304;18.294;2023-08-24T03:28:49;101159.88;;;16.67;74.77
76311;BME280;65120;59.304;18.294;2023-08-24T03:31:16;101176.19;;;16.78;74.49
76311;BME280;65120;59.304;18.294;2023-08-24T03:33:43;101184.06;;;16.79;74.73
76311;BME280;65120;59.304;18.294;2023-08-24T03:36:10;101157.34;;;16.63;74.66
76311;BME280;65120;59.304;18.294;2023-08-24T03:38:38;101174.47;;;16.77;74.80
76311;BME280;65120;59.304;18.294;2023-08-24T03:41:05;101167.50;;;16.74;74.85
76311;BME280;65120;59.304;18.294;2023-08-24T03:43:34;101177.13;;;16.75;74.76
76311;BME280;65120;59.304;18.294;2023-08-24T03:46:02;101178.22;;;16.70;74.41
76311;BME280;65120;59.304;18.294;2023-08-24T03:48:31;101179.69;;;16.78;74.67
76311;BME280;65120;59.304;18.294;2023-08-24T03:50:58;101166.00;;;16.67;74.38
76311;BME280;65120;59.304;18.294;2023-08-24T03:53:25;101165.97;;;16.69;74.65
76311;BME280;65120;59.304;18.294;2023-08-24T03:55:52;101177.13;;;16.77;74.29
76311;BME280;65120;59.304;18.294;2023-08-24T03:58:19;101156.31;;;16.68;74.42
76311;BME280;65120;59.304;18.294;2023-08-24T04:00:48;101176.28;;;16.75;74.33
76311;BME280;65120;59.304;18.294;2023-08-24T04:03:15;101166.09;;;16.66;74.53
76311;BME280;65120;59.304;18.294;2023-08-24T04:05:42;101164.28;;;16.66;74.54
76311;BME280;65120;59.304;18.294;2023-08-24T04:08:09;101165.25;;;16.63;74.66
76311;BME280;65120;59.304;18.294;2023-08-24T04:10:37;101179.03;;;16.72;74.61
76311;BME280;65120;59.304;18.294;2023-08-24T04:13:04;101176.56;;;16.67;74.60
76311;BME280;65120;59.304;18.294;2023-08-24T04:15:30;101165.31;;;16.62;74.61
76311;BME280;65120;59.304;18.294;2023-08-24T04:17:59;101179.06;;;16.70;74.52
76311;BME280;65120;59.304;18.294;2023-08-24T04:20:26;101172.09;;;16.69;74.83
76311;BME280;65120;59.304;18.294;2023-08-24T04:22:54;101160.84;;;16.64;74.88
76311;BME280;65120;59.304;18.294;2023-08-24T04:25:21;101154.09;;;16.57;74.90
76311;BME280;65120;59.304;18.294;2023-08-24T04:27:48;101185.31;;;16.68;74.72
76311;BME280;65120;59.304;18.294;2023-08-24T04:30:15;101177.47;;;16.66;74.72
76311;BME280;65120;59.304;18.294;2023-08-24T04:32:42;101184.47;;;16.67;74.82
76311;BME280;65120;59.304;18.294;2023-08-24T04:35:10;101173.19;;;16.63;74.93
76311;BME280;65120;59.304;18.294;2023-08-24T04:37:37;101161.19;;;16.55;74.84
76311;BME280;65120;59.304;18.294;2023-08-24T04:40:06;101180.97;;;16.67;74.81
76311;BME280;65120;59.304;18.294;2023-08-24T04:42:33;101173.34;;;16.59;74.90
76311;BME280;65120;59.304;18.294;2023-08-24T04:45:00;101171.63;;;16.58;74.84
76311;BME280;65120;59.304;18.294;2023-08-24T04:47:27;101182.75;;;16.66;75.11
76311;BME280;65120;59.304;18.294;2023-08-24T04:49:54;101187.09;;;16.67;75.19
76311;BME280;65120;59.304;18.294;2023-08-24T04:52:23;101179.19;;;16.67;75.18
76311;BME280;65120;59.304;18.294;2023-08-24T04:54:50;101168.84;;;16.62;75.30
76311;BME280;65120;59.304;18.294;2023-08-24T04:57:17;101174.84;;;16.66;75.42
76311;BME280;65120;59.304;18.294;2023-08-24T04:59:44;101174.03;;;16.64;75.63
76311;BME280;65120;59.304;18.294;2023-08-24T05:02:12;101154.03;;;16.58;75.76
76311;BME280;65120;59.304;18.294;2023-08-24T05:04:39;101170.38;;;16.68;75.88
76311;BME280;65120;59.304;18.294;2023-08-24T05:07:06;101178.34;;;16.67;75.85
76311;BME280;65120;59.304;18.294;2023-08-24T05:09:34;101159.19;;;16.61;75.81
76311;BME280;65120;59.304;18.294;2023-08-24T05:12:01;101168.75;;;16.64;75.60
76311;BME280;65120;59.304;18.294;2023-08-24T05:14:28;101172.09;;;16.69;75.68
76311;BME280;65120;59.304;18.294;2023-08-24T05:16:55;101178.97;;;16.73;75.72
76311;BME280;65120;59.304;18.294;2023-08-24T05:19:22;101172.78;;;16.74;75.89
76311;BME280;65120;59.304;18.294;2023-08-24T05:21:48;101162.50;;;16.67;75.96
76311;BME280;65120;59.304;18.294;2023-08-24T05:24:15;101175.25;;;16.79;75.96
76311;BME280;65120;59.304;18.294;2023-08-24T05:26:44;101171.72;;;16.80;76.00
76311;BME280;65120;59.304;18.294;2023-08-24T05:29:10;101167.44;;;16.76;76.09
76311;BME280;65120;59.304;18.294;2023-08-24T05:31:37;101163.84;;;16.78;76.31
76311;BME280;65120;59.304;18.294;2023-08-24T05:34:04;101184.56;;;16.89;76.39
76311;BME280;65120;59.304;18.294;2023-08-24T05:36:31;101173.03;;;16.92;76.49
76311;BME280;65120;59.304;18.294;2023-08-24T05:38:58;101172.06;;;16.94;76.69
76311;BME280;65120;59.304;18.294;2023-08-24T05:41:25;101166.69;;;16.96;76.67
76311;BME280;65120;59.304;18.294;2023-08-24T05:43:53;101145.16;;;16.84;76.59
76311;BME280;65120;59.304;18.294;2023-08-24T05:46:20;101172.66;;;17.01;76.54
76311;BME280;65120;59.304;18.294;2023-08-24T05:48:47;101141.38;;;16.92;76.57
76311;BME280;65120;59.304;18.294;2023-08-24T05:51:14;101159.47;;;17.01;76.64
76311;BME280;65120;59.304;18.294;2023-08-24T05:53:41;101164.25;;;17.13;76.58
76311;BME280;65120;59.304;18.294;2023-08-24T05:56:07;101177.38;;;17.16;76.30
76311;BME280;65120;59.304;18.294;2023-08-24T05:58:34;101168.50;;;17.17;76.49
76311;BME280;65120;59.304;18.294;2023-08-24T06:01:02;101149.31;;;17.14;76.28
76311;BME280;65120;59.304;18.294;2023-08-24T06:03:29;101172.63;;;17.24;76.15
76311;BME280;65120;59.304;18.294;2023-08-24T06:06:01;101166.31;;;17.28;76.17
76311;BME280;65120;59.304;18.294;2023-08-24T06:08:28;101170.59;;;17.31;76.08
76311;BME280;65120;59.304;18.294;2023-08-24T06:10:56;101162.81;;;17.28;76.19
76311;BME280;65120;59.304;18.294;2023-08-24T06:13:23;101178.28;;;17.37;76.07
76311;BME280;65120;59.304;18.294;2023-08-24T06:15:50;101176.38;;;17.41;75.88
76311;BME280;65120;59.304;18.294;2023-08-24T06:18:18;101171.88;;;17.43;75.83
76311;BME280;65120;59.304;18.294;2023-08-24T06:20:45;101173.56;;;17.45;75.72
76311;BME280;65120;59.304;18.294;2023-08-24T06:23:14;101169.94;;;17.48;75.55
76311;BME280;65120;59.304;18.294;2023-08-24T06:25:41;101178.63;;;17.50;75.57
76311;BME280;65120;59.304;18.294;2023-08-24T06:28:08;101180.28;;;17.52;75.39
76311;BME280;65120;59.304;18.294;2023-08-24T06:30:37;101174.03;;;17.55;75.33
76311;BME280;65120;59.304;18.294;2023-08-24T06:33:05;101179.19;;;17.58;75.43
76311;BME280;65120;59.304;18.294;2023-08-24T06:35:34;101176.47;;;17.60;75.29
76311;BME280;65120;59.304;18.294;2023-08-24T06:38:01;101152.41;;;17.45;75.08
76311;BME280;65120;59.304;18.294;2023-08-24T06:40:29;101183.31;;;17.65;75.08
76311;BME280;65120;59.304;18.294;2023-08-24T06:42:56;101180.53;;;17.68;75.21
76311;BME280;65120;59.304;18.294;2023-08-24T06:45:23;101186.53;;;17.72;74.89
76311;BME280;65120;59.304;18.294;2023-08-24T06:47:50;101190.84;;;17.74;74.74
76311;BME280;65120;59.304;18.294;2023-08-24T06:50:18;101184.56;;;17.77;74.85
76311;BME280;65120;59.304;18.294;2023-08-24T06:52:47;101187.22;;;17.77;74.63
76311;BME280;65120;59.304;18.294;2023-08-24T06:55:14;101193.19;;;17.82;74.78
76311;BME280;65120;59.304;18.294;2023-08-24T06:57:41;101183.34;;;17.86;74.60
76311;BME280;65120;59.304;18.294;2023-08-24T07:00:08;101167.75;;;17.80;74.76
76311;BME280;65120;59.304;18.294;2023-08-24T07:02:38;101180.56;;;17.89;74.47
76311;BME280;65120;59.304;18.294;2023-08-24T07:05:05;101181.97;;;17.97;74.49
76311;BME280;65120;59.304;18.294;2023-08-24T07:07:34;101187.97;;;18.01;74.41
76311;BME280;65120;59.304;18.294;2023-08-24T07:10:02;101187.84;;;18.04;74.68
76311;BME280;65120;59.304;18.294;2023-08-24T07:12:30;101186.72;;;18.10;74.52
76311;BME280;65120;59.304;18.294;2023-08-24T07:14:56;101190.88;;;18.15;74.30
76311;BME280;65120;59.304;18.294;2023-08-24T07:17:23;101195.94;;;18.22;74.32
76311;BME280;65120;59.304;18.294;2023-08-24T07:19:50;101188.63;;;18.27;74.13
76311;BME280;65120;59.304;18.294;2023-08-24T07:22:17;101191.94;;;18.32;74.29
76311;BME280;65120;59.304;18.294;2023-08-24T07:24:44;101194.31;;;18.38;73.90
76311;BME280;65120;59.304;18.294;2023-08-24T07:27:13;101199.41;;;18.42;73.58
76311;BME280;65120;59.304;18.294;2023-08-24T07:29:40;101196.47;;;18.49;73.38
76311;BME280;65120;59.304;18.294;2023-08-24T07:32:07;101197.06;;;18.55;73.28
76311;BME280;65120;59.304;18.294;2023-08-24T07:34:33;101199.44;;;18.61;72.66
76311;BME280;65120;59.304;18.294;2023-08-24T07:37:00;101204.47;;;18.68;72.25
76311;BME280;65120;59.304;18.294;2023-08-24T07:39:27;101199.81;;;18.73;72.11
76311;BME280;65120;59.304;18.294;2023-08-24T07:41:54;101198.63;;;18.80;71.72
76311;BME280;65120;59.304;18.294;2023-08-24T07:44:23;101203.63;;;18.86;71.56
76311;BME280;65120;59.304;18.294;2023-08-24T07:46:49;101192.19;;;18.85;71.28
76311;BME280;65120;59.304;18.294;2023-08-24T07:49:16;101206.63;;;18.97;70.99
76311;BME280;65120;59.304;18.294;2023-08-24T07:51:43;101210.72;;;19.04;70.68
76311;BME280;65120;59.304;18.294;2023-08-24T07:54:12;101214.09;;;19.08;70.62
76311;BME280;65120;59.304;18.294;2023-08-24T07:56:40;101213.78;;;19.14;70.52
76311;BME280;65120;59.304;18.294;2023-08-24T07:59:06;101214.44;;;19.19;70.51
76311;BME280;65120;59.304;18.294;2023-08-24T08:01:35;101212.44;;;19.24;70.00
76311;BME280;65120;59.304;18.294;2023-08-24T08:04:01;101177.16;;;19.05;69.79
76311;BME280;65120;59.304;18.294;2023-08-24T08:06:28;101217.34;;;19.32;69.83
76311;BME280;65120;59.304;18.294;2023-08-24T08:08:55;101218.09;;;19.36;69.65
76311;BME280;65120;59.304;18.294;2023-08-24T08:11:23;101211.78;;;19.38;69.62
76311;BME280;65120;59.304;18.294;2023-08-24T08:13:50;101206.34;;;19.41;69.25
76311;BME280;65120;59.304;18.294;2023-08-24T08:16:17;101202.88;;;19.39;68.78
76311;BME280;65120;59.304;18.294;2023-08-24T08:18:45;101204.38;;;19.45;68.88
76311;BME280;65120;59.304;18.294;2023-08-24T08:21:14;101187.16;;;19.36;68.65
76311;BME280;65120;59.304;18.294;2023-08-24T08:23:43;101174.81;;;19.35;69.03
76311;BME280;65120;59.304;18.294;2023-08-24T08:26:10;101199.88;;;19.47;68.41
76311;BME280;65120;59.304;18.294;2023-08-24T08:28:37;101209.00;;;19.59;67.98
76311;BME280;65120;59.304;18.294;2023-08-24T08:31:04;101211.50;;;19.62;68.15
76311;BME280;65120;59.304;18.294;2023-08-24T08:33:31;101203.41;;;19.65;68.18
76311;BME280;65120;59.304;18.294;2023-08-24T08:36:00;101211.25;;;19.68;68.02
76311;BME280;65120;59.304;18.294;2023-08-24T08:38:27;101215.44;;;19.72;67.93
76311;BME280;65120;59.304;18.294;2023-08-24T08:40:56;101211.72;;;19.76;67.99
76311;BME280;65120;59.304;18.294;2023-08-24T08:43:23;101210.72;;;19.79;67.96
76311;BME280;65120;59.304;18.294;2023-08-24T08:45:49;101204.69;;;19.75;67.81
76311;BME280;65120;59.304;18.294;2023-08-24T08:48:18;101207.66;;;19.86;67.85
76311;BME280;65120;59.304;18.294;2023-08-24T08:50:48;101205.78;;;19.88;67.02
76311;BME280;65120;59.304;18.294;2023-08-24T08:53:21;101206.47;;;19.92;65.73
76311;BME280;65120;59.304;18.294;2023-08-24T08:55:49;101191.47;;;19.92;66.02
76311;BME280;65120;59.304;18.294;2023-08-24T08:58:18;101200.75;;;20.01;65.52
76311;BME280;65120;59.304;18.294;2023-08-24T09:00:46;101206.78;;;20.03;65.61
76311;BME280;65120;59.304;18.294;2023-08-24T09:03:14;101206.63;;;20.06;65.33
76311;BME280;65120;59.304;18.294;2023-08-24T09:05:44;101199.41;;;20.10;65.55
76311;BME280;65120;59.304;18.294;2023-08-24T09:08:13;101204.63;;;20.11;65.46
76311;BME280;65120;59.304;18.294;2023-08-24T09:10:42;101204.44;;;20.14;65.53
76311;BME280;65120;59.304;18.294;2023-08-24T09:13:09;101205.25;;;20.16;65.47
76311;BME280;65120;59.304;18.294;2023-08-24T09:15:36;101186.38;;;20.05;65.32
76311;BME280;65120;59.304;18.294;2023-08-24T09:18:03;101194.69;;;20.15;65.42
76311;BME280;65120;59.304;18.294;2023-08-24T09:20:30;101175.06;;;20.02;65.36
76311;BME280;65120;59.304;18.294;2023-08-24T09:22:58;101202.44;;;20.19;65.13
76311;BME280;65120;59.304;18.294;2023-08-24T09:25:25;101195.31;;;20.20;64.90
76311;BME280;65120;59.304;18.294;2023-08-24T09:28:00;101175.44;;;20.11;65.37
76311;BME280;65120;59.304;18.294;2023-08-24T09:30:30;101190.00;;;20.20;65.45
76311;BME280;65120;59.304;18.294;2023-08-24T09:33:01;101183.97;;;20.18;65.11
76311;BME280;65120;59.304;18.294;2023-08-24T09:35:28;101194.25;;;20.24;65.47
76311;BME280;65120;59.304;18.294;2023-08-24T09:37:55;101184.56;;;20.23;64.98
76311;BME280;65120;59.304;18.294;2023-08-24T09:40:24;101188.84;;;20.26;65.26
76311;BME280;65120;59.304;18.294;2023-08-24T09:42:51;101177.53;;;20.22;66.00
76311;BME280;65120;59.304;18.294;2023-08-24T09:45:20;101185.97;;;20.30;64.91
76311;BME280;65120;59.304;18.294;2023-08-24T09:47:50;101183.22;;;20.32;64.69
76311;BME280;65120;59.304;18.294;2023-08-24T09:50:18;101189.13;;;20.37;64.62
76311;BME280;65120;59.304;18.294;2023-08-24T09:52:47;101156.47;;;20.19;64.82
76311;BME280;65120;59.304;18.294;2023-08-24T09:55:20;101181.72;;;20.43;64.79
76311;BME280;65120;59.304;18.294;2023-08-24T09:57:52;101194.72;;;20.48;64.50
76311;BME280;65120;59.304;18.294;2023-08-24T10:00:22;101174.53;;;20.45;64.13
76311;BME280;65120;59.304;18.294;2023-08-24T10:02:51;101193.25;;;20.60;64.31
76311;BME280;65120;59.304;18.294;2023-08-24T10:05:20;101192.16;;;20.64;63.62
76311;BME280;65120;59.304;18.294;2023-08-24T10:07:51;101183.94;;;20.69;63.55
76311;BME280;65120;59.304;18.294;2023-08-24T10:10:20;101183.69;;;20.73;63.33
76311;BME280;65120;59.304;18.294;2023-08-24T10:12:50;101169.28;;;20.77;63.33
76311;BME280;65120;59.304;18.294;2023-08-24T10:15:18;101173.50;;;20.81;62.83
76311;BME280;65120;59.304;18.294;2023-08-24T10:17:49;101159.78;;;20.73;62.86
76311;BME280;65120;59.304;18.294;2023-08-24T10:20:19;101183.63;;;20.91;63.41
76311;BME280;65120;59.304;18.294;2023-08-24T10:22:47;101180.72;;;20.95;62.80
76311;BME280;65120;59.304;18.294;2023-08-24T10:25:16;101178.63;;;21.00;62.23
76311;BME280;65120;59.304;18.294;2023-08-24T10:27:43;101180.28;;;21.03;62.99
76311;BME280;65120;59.304;18.294;2023-08-24T10:30:14;101173.88;;;21.07;62.14
76311;BME280;65120;59.304;18.294;2023-08-24T10:32:42;101174.66;;;21.09;61.98
76311;BME280;65120;59.304;18.294;2023-08-24T10:35:12;101172.75;;;21.11;62.10
76311;BME280;65120;59.304;18.294;2023-08-24T10:37:44;101170.19;;;21.09;61.82
76311;BME280;65120;59.304;18.294;2023-08-24T10:40:12;101176.34;;;21.10;61.82
76311;BME280;65120;59.304;18.294;2023-08-24T10:42:46;101173.75;;;21.08;62.03
76311;BME280;65120;59.304;18.294;2023-08-24T10:45:13;101176.25;;;21.11;61.82
76311;BME280;65120;59.304;18.294;2023-08-24T10:47:44;101172.56;;;21.14;61.98
76311;BME280;65120;59.304;18.294;2023-08-24T10:50:14;101157.50;;;21.15;61.56
76311;BME280;65120;59.304;18.294;2023-08-24T10:52:43;101170.69;;;21.16;61.45
76311;BME280;65120;59.304;18.294;2023-08-24T10:55:23;101163.66;;;21.15;61.81
76311;BME280;65120;59.304;18.294;2023-08-24T10:57:57;101167.84;;;21.19;61.57
76311;BME280;65120;59.304;18.294;2023-08-24T11:00:26;101165.28;;;21.18;61.33
76311;BME280;65120;59.304;18.294;2023-08-24T11:02:54;101181.06;;;21.21;61.38
76311;BME280;65120;59.304;18.294;2023-08-24T11:05:23;101162.47;;;21.21;60.77
76311;BME280;65120;59.304;18.294;2023-08-24T11:07:54;101165.97;;;21.21;61.00
76311;BME280;65120;59.304;18.294;2023-08-24T11:10:23;101170.25;;;21.24;61.31
76311;BME280;65120;59.304;18.294;2023-08-24T11:13:07;101161.44;;;21.23;61.31
76311;BME280;65120;59.304;18.294;2023-08-24T11:15:37;101147.72;;;21.15;61.44
76311;BME280;65120;59.304;18.294;2023-08-24T11:18:15;101161.25;;;21.26;61.05
76311;BME280;65120;59.304;18.294;2023-08-24T11:20:48;101160.22;;;21.29;61.54
76311;BME280;65120;59.304;18.294;2023-08-24T11:23:16;101152.50;;;21.24;61.22
76311;BME280;65120;59.304;18.294;2023-08-24T11:25:44;101160.22;;;21.29;60.92
76311;BME280;65120;59.304;18.294;2023-08-24T11:28:12;101157.72;;;21.26;60.87
76311;BME280;65120;59.304;18.294;2023-08-24T11:30:43;101166.22;;;21.32;60.76
76311;BME280;65120;59.304;18.294;2023-08-24T11:33:11;101161.81;;;21.31;60.90
76311;BME280;65120;59.304;18.294;2023-08-24T11:35:41;101166.22;;;21.32;60.00
76311;BME280;65120;59.304;18.294;2023-08-24T11:38:10;101140.19;;;21.23;60.43
76311;BME280;65120;59.304;18.294;2023-08-24T11:40:37;101155.78;;;21.29;60.54
76311;BME280;65120;59.304;18.294;2023-08-24T11:43:04;101157.28;;;21.33;60.44
76311;BME280;65120;59.304;18.294;2023-08-24T11:45:32;101141.72;;;21.27;60.82
76311;BME280;65120;59.304;18.294;2023-08-24T11:48:00;101151.31;;;21.30;60.12
76311;BME280;65120;59.304;18.294;2023-08-24T11:50:28;101154.47;;;21.37;59.93
76311;BME280;65120;59.304;18.294;2023-08-24T11:52:55;101145.63;;;21.36;58.95
76311;BME280;65120;59.304;18.294;2023-08-24T11:55:23;101150.91;;;21.38;59.58
76311;BME280;65120;59.304;18.294;2023-08-24T11:57:51;101146.50;;;21.37;58.76
76311;BME280;65120;59.304;18.294;2023-08-24T12:00:19;101145.59;;;21.38;59.25
76311;BME280;65120;59.304;18.294;2023-08-24T12:02:47;101142.94;;;21.38;59.35
76311;BME280;65120;59.304;18.294;2023-08-24T12:05:21;101141.97;;;21.39;59.19
76311;BME280;65120;59.304;18.294;2023-08-24T12:07:49;101149.94;;;21.39;58.95
76311;BME280;65120;59.304;18.294;2023-08-24T12:10:16;101144.44;;;21.42;58.67
76311;BME280;65120;59.304;18.294;2023-08-24T12:12:45;101147.13;;;21.42;58.93
76311;BME280;65120;59.304;18.294;2023-08-24T12:15:15;101136.47;;;21.42;59.29
76311;BME280;65120;59.304;18.294;2023-08-24T12:17:43;101136.56;;;21.40;58.98
76311;BME280;65120;59.304;18.294;2023-08-24T12:20:17;101144.44;;;21.42;58.16
76311;BME280;65120;59.304;18.294;2023-08-24T12:22:50;101136.47;;;21.42;58.22
76311;BME280;65120;59.304;18.294;2023-08-24T12:25:17;101136.41;;;21.43;58.05
76311;BME280;65120;59.304;18.294;2023-08-24T12:27:46;101126.63;;;21.44;57.82
76311;BME280;65120;59.304;18.294;2023-08-24T12:30:13;101122.41;;;21.40;58.33
76311;BME280;65120;59.304;18.294;2023-08-24T12:32:44;101135.28;;;21.47;57.92
76311;BME280;65120;59.304;18.294;2023-08-24T12:35:11;101135.19;;;21.49;57.93
76311;BME280;65120;59.304;18.294;2023-08-24T12:37:38;101140.59;;;21.47;57.95
76311;BME280;65120;59.304;18.294;2023-08-24T12:40:07;101136.13;;;21.48;57.97
76311;BME280;65120;59.304;18.294;2023-08-24T12:42:35;101131.75;;;21.47;57.18
76311;BME280;65120;59.304;18.294;2023-08-24T12:45:04;101129.88;;;21.49;57.96